createdAt,value
2023-01-30T00:00:38.560Z,2.00
2023-01-30T00:01:38.569Z,1.98
2023-01-30T00:02:38.573Z,2.04
2023-01-30T00:03:38.580Z,2.05
2023-01-30T00:04:38.589Z,1.98
2023-01-30T00:05:38.603Z,2.01
2023-01-30T00:06:38.605Z,2.03
2023-01-30T00:07:38.621Z,1.93
2023-01-30T00:08:38.616Z,2.04
2023-01-30T00:09:38.627Z,2.05
2023-01-30T00:10:38.634Z,1.98
2023-01-30T00:11:38.652Z,2.04
2023-01-30T00:12:38.651Z,2.07
2023-01-30T00:13:38.655Z,1.98
2023-01-30T00:14:38.678Z,2.04
2023-01-30T00:15:38.681Z,2.01
2023-01-30T00:16:38.734Z,1.97
2023-01-30T00:17:38.687Z,1.97
2023-01-30T00:18:38.695Z,1.97
2023-01-30T00:19:38.701Z,2.00
2023-01-30T00:20:38.710Z,2.04
2023-01-30T00:21:38.718Z,2.05
2023-01-30T00:22:39.688Z,2.04
2023-01-30T00:23:38.739Z,2.00
2023-01-30T00:24:38.858Z,2.00
2023-01-30T00:25:38.876Z,2.05
2023-01-30T00:26:38.763Z,2.04
2023-01-30T00:27:38.766Z,2.08
2023-01-30T00:28:38.771Z,2.04
2023-01-30T00:29:38.780Z,2.00
2023-01-30T00:30:38.823Z,2.03
2023-01-30T00:31:38.810Z,2.07
2023-01-30T00:32:38.804Z,2.14
2023-01-30T00:33:38.811Z,2.01
2023-01-30T00:34:38.822Z,2.08
2023-01-30T00:35:38.828Z,2.01
2023-01-30T00:36:38.837Z,2.05
2023-01-30T00:37:38.843Z,1.98
2023-01-30T00:38:38.849Z,2.12
2023-01-30T00:39:38.856Z,2.14
2023-01-30T00:40:38.865Z,2.15
2023-01-30T00:41:38.876Z,2.16
2023-01-30T00:42:38.881Z,2.00
2023-01-30T00:43:38.901Z,2.14
2023-01-30T00:44:38.898Z,2.12
2023-01-30T00:45:38.923Z,2.01
2023-01-30T00:46:38.912Z,2.12
2023-01-30T00:47:38.920Z,2.14
2023-01-30T00:48:38.929Z,2.08
2023-01-30T00:49:38.935Z,2.04
2023-01-30T00:50:38.941Z,2.05
2023-01-30T00:51:38.959Z,2.05
2023-01-30T00:52:38.965Z,2.01
2023-01-30T00:53:38.997Z,2.03
2023-01-30T00:54:39.000Z,2.01
2023-01-30T00:55:38.988Z,2.01
2023-01-30T00:56:38.987Z,2.05
2023-01-30T00:57:39.005Z,2.01
2023-01-30T00:58:39.018Z,2.08
2023-01-30T00:59:39.015Z,2.05
2023-01-30T01:00:39.037Z,1.98
2023-01-30T01:01:39.060Z,2.07
2023-01-30T01:02:39.083Z,2.01
2023-01-30T01:03:39.057Z,1.98
2023-01-30T01:04:39.053Z,2.01
2023-01-30T01:05:39.057Z,2.00
2023-01-30T01:06:39.066Z,2.12
2023-01-30T01:07:39.073Z,2.00
2023-01-30T01:08:39.092Z,2.04
2023-01-30T01:09:39.105Z,1.92
2023-01-30T01:10:39.095Z,2.05
2023-01-30T01:11:39.111Z,1.89
2023-01-30T01:12:39.112Z,2.03
2023-01-30T01:13:39.121Z,1.97
2023-01-30T01:14:39.128Z,1.95
2023-01-30T01:15:39.163Z,2.04
2023-01-30T01:16:39.168Z,1.97
2023-01-30T01:17:39.150Z,2.03
2023-01-30T01:18:39.159Z,2.03
2023-01-30T01:19:39.169Z,1.97
2023-01-30T01:20:39.174Z,1.86
2023-01-30T01:21:39.181Z,1.92
2023-01-30T01:22:39.189Z,1.95
2023-01-30T01:23:39.197Z,1.92
2023-01-30T01:24:39.207Z,1.89
2023-01-30T01:25:39.211Z,2.03
2023-01-30T01:26:39.232Z,1.97
2023-01-30T01:27:39.226Z,1.98
2023-01-30T01:28:39.242Z,1.88
2023-01-30T01:29:39.245Z,2.00
2023-01-30T01:30:39.257Z,1.93
2023-01-30T01:31:39.297Z,1.92
2023-01-30T01:32:39.267Z,1.92
2023-01-30T01:33:39.274Z,1.95
2023-01-30T01:34:39.281Z,1.92
2023-01-30T01:35:39.288Z,1.98
2023-01-30T01:36:55.002Z,1.98
2023-01-30T01:37:39.303Z,1.93
2023-01-30T01:38:39.314Z,1.95
2023-01-30T01:39:39.320Z,1.92
2023-01-30T01:40:39.329Z,1.98
2023-01-30T01:41:39.336Z,1.97
2023-01-30T01:42:39.341Z,1.97
2023-01-30T01:43:39.350Z,1.97
2023-01-30T01:44:39.356Z,2.00
2023-01-30T01:45:39.369Z,1.93
2023-01-30T01:46:39.375Z,1.97
2023-01-30T01:47:39.379Z,1.81
2023-01-30T01:48:39.388Z,1.88
2023-01-30T01:49:39.394Z,1.95
2023-01-30T01:50:39.405Z,1.95
2023-01-30T01:51:39.419Z,2.01
2023-01-30T01:52:39.418Z,1.93
2023-01-30T01:53:39.426Z,2.01
2023-01-30T01:54:39.433Z,1.92
2023-01-30T01:55:39.443Z,1.88
2023-01-30T01:56:39.453Z,2.00
2023-01-30T01:57:39.454Z,2.00
2023-01-30T01:58:39.465Z,1.95
2023-01-30T01:59:39.483Z,2.01
2023-01-30T02:00:39.479Z,1.93
2023-01-30T02:01:39.490Z,2.00
2023-01-30T02:02:39.554Z,1.97
2023-01-30T02:03:39.517Z,1.98
2023-01-30T02:04:39.514Z,1.97
2023-01-30T02:05:39.518Z,1.89
2023-01-30T02:06:39.524Z,1.88
2023-01-30T02:07:39.535Z,2.00
2023-01-30T02:08:39.541Z,1.95
2023-01-30T02:09:39.550Z,2.04
2023-01-30T02:10:39.554Z,1.93
2023-01-30T02:11:39.564Z,1.89
2023-01-30T02:12:39.568Z,1.84
2023-01-30T02:13:39.592Z,1.89
2023-01-30T02:14:39.584Z,1.88
2023-01-30T02:15:39.593Z,1.81
2023-01-30T02:16:39.611Z,1.85
2023-01-30T02:17:39.679Z,1.76
2023-01-30T02:18:39.617Z,1.70
2023-01-30T02:19:39.623Z,1.74
2023-01-30T02:20:39.632Z,1.71
2023-01-30T02:21:39.642Z,1.70
2023-01-30T02:22:39.645Z,1.67
2023-01-30T02:23:39.653Z,1.67
2023-01-30T02:24:39.665Z,1.70
2023-01-30T02:25:39.667Z,1.61
2023-01-30T02:26:39.693Z,1.66
2023-01-30T02:27:39.682Z,1.63
2023-01-30T02:28:39.690Z,1.61
2023-01-30T02:29:39.693Z,1.63
2023-01-30T02:30:39.779Z,1.60
2023-01-30T02:31:39.792Z,1.60
2023-01-30T02:32:39.720Z,1.61
2023-01-30T02:33:39.725Z,1.67
2023-01-30T02:34:39.732Z,1.61
2023-01-30T02:35:39.741Z,1.67
2023-01-30T02:36:39.748Z,1.67
2023-01-30T02:37:39.760Z,1.70
2023-01-30T02:38:39.761Z,1.61
2023-01-30T02:39:39.769Z,1.66
2023-01-30T02:40:39.782Z,1.53
2023-01-30T02:41:39.784Z,1.63
2023-01-30T02:42:39.790Z,1.64
2023-01-30T02:43:39.796Z,1.66
2023-01-30T02:44:39.804Z,1.66
2023-01-30T02:45:39.820Z,1.60
2023-01-30T02:46:39.818Z,1.74
2023-01-30T02:47:39.836Z,1.66
2023-01-30T02:48:39.832Z,1.61
2023-01-30T02:49:39.841Z,1.66
2023-01-30T02:50:39.850Z,1.57
2023-01-30T02:51:39.853Z,1.60
2023-01-30T02:52:39.869Z,1.63
2023-01-30T02:53:39.868Z,1.58
2023-01-30T02:54:39.876Z,1.63
2023-01-30T02:55:39.882Z,1.50
2023-01-30T02:56:39.890Z,1.56
2023-01-30T02:57:39.897Z,1.53
2023-01-30T02:58:39.904Z,1.53
2023-01-30T02:59:39.912Z,1.49
2023-01-30T03:00:39.918Z,1.53
2023-01-30T03:01:39.991Z,1.58
2023-01-30T03:02:39.976Z,1.52
2023-01-30T03:03:39.937Z,1.50
2023-01-30T03:04:39.948Z,1.49
2023-01-30T03:05:39.958Z,1.52
2023-01-30T03:06:39.963Z,1.53
2023-01-30T03:07:40.106Z,1.56
2023-01-30T03:08:39.975Z,1.56
2023-01-30T03:09:39.989Z,1.50
2023-01-30T03:10:39.990Z,1.57
2023-01-30T03:11:39.999Z,1.48
2023-01-30T03:12:40.009Z,1.58
2023-01-30T03:13:40.018Z,1.50
2023-01-30T03:14:40.028Z,1.52
2023-01-30T03:15:40.028Z,1.57
2023-01-30T03:16:40.034Z,1.56
2023-01-30T03:17:40.039Z,1.46
2023-01-30T03:18:40.054Z,1.52
2023-01-30T03:19:40.054Z,1.50
2023-01-30T03:20:40.066Z,1.52
2023-01-30T03:21:40.069Z,1.53
2023-01-30T03:22:40.078Z,1.50
2023-01-30T03:23:40.091Z,1.61
2023-01-30T03:24:40.093Z,1.63
2023-01-30T03:25:40.099Z,1.58
2023-01-30T03:26:40.116Z,1.57
2023-01-30T03:27:40.114Z,1.64
2023-01-30T03:28:40.121Z,1.61
2023-01-30T03:29:40.126Z,1.63
2023-01-30T03:30:40.158Z,1.60
2023-01-30T03:31:40.254Z,1.64
2023-01-30T03:32:40.152Z,1.61
2023-01-30T03:33:40.155Z,1.61
2023-01-30T03:34:40.166Z,1.57
2023-01-30T03:35:40.175Z,1.61
2023-01-30T03:36:40.178Z,1.64
2023-01-30T03:37:40.190Z,1.66
2023-01-30T03:38:40.192Z,1.71
2023-01-30T03:39:40.201Z,1.66
2023-01-30T03:40:40.210Z,1.64
2023-01-30T03:41:40.219Z,1.63
2023-01-30T03:42:40.222Z,1.70
2023-01-30T03:43:40.230Z,1.70
2023-01-30T03:44:40.251Z,1.71
2023-01-30T03:45:40.246Z,1.75
2023-01-30T03:46:40.261Z,1.79
2023-01-30T03:47:40.265Z,1.75
2023-01-30T03:48:40.268Z,1.75
2023-01-30T03:49:40.279Z,1.79
2023-01-30T03:50:40.283Z,1.82
2023-01-30T03:51:40.289Z,1.81
2023-01-30T03:52:40.296Z,1.81
2023-01-30T03:53:40.314Z,1.85
2023-01-30T03:54:40.313Z,1.85
2023-01-30T03:55:40.327Z,1.86
2023-01-30T03:56:40.329Z,1.88
2023-01-30T03:57:40.335Z,1.93
2023-01-30T03:58:40.343Z,1.89
2023-01-30T03:59:40.347Z,1.79
2023-01-30T04:00:40.356Z,1.88
2023-01-30T04:01:40.364Z,1.89
2023-01-30T04:02:40.447Z,1.84
2023-01-30T04:03:40.379Z,1.86
2023-01-30T04:04:40.386Z,1.81
2023-01-30T04:05:40.393Z,1.86
2023-01-30T04:06:40.401Z,1.88
2023-01-30T04:07:40.409Z,1.88
2023-01-30T04:08:40.416Z,1.93
2023-01-30T04:09:40.424Z,1.84
2023-01-30T04:10:40.432Z,1.92
2023-01-30T04:11:40.438Z,1.95
2023-01-30T04:12:40.450Z,1.93
2023-01-30T04:13:40.459Z,2.03
2023-01-30T04:14:40.464Z,1.98
2023-01-30T04:15:40.478Z,2.05
2023-01-30T04:16:40.523Z,1.92
2023-01-30T04:17:40.489Z,1.98
2023-01-30T04:18:40.491Z,2.00
2023-01-30T04:19:40.499Z,2.03
2023-01-30T04:20:40.508Z,2.03
2023-01-30T04:21:40.524Z,2.10
2023-01-30T04:22:40.523Z,2.01
2023-01-30T04:23:40.541Z,2.00
2023-01-30T04:24:40.541Z,2.05
2023-01-30T04:25:40.545Z,2.07
2023-01-30T04:26:40.584Z,2.08
2023-01-30T04:27:40.561Z,2.03
2023-01-30T04:28:40.567Z,2.10
2023-01-30T04:29:40.577Z,2.07
2023-01-30T04:30:40.619Z,2.12
2023-01-30T04:31:40.649Z,2.14
2023-01-30T04:32:40.599Z,2.08
2023-01-30T04:33:40.606Z,2.10
2023-01-30T04:34:40.623Z,2.15
2023-01-30T04:35:40.627Z,2.18
2023-01-30T04:36:40.632Z,2.23
2023-01-30T04:37:40.643Z,2.21
2023-01-30T04:38:40.649Z,2.28
2023-01-30T04:39:40.655Z,2.16
2023-01-30T04:40:40.672Z,2.22
2023-01-30T04:41:40.669Z,2.23
2023-01-30T04:42:40.679Z,2.33
2023-01-30T04:43:40.685Z,2.37
2023-01-30T04:44:40.699Z,2.37
2023-01-30T04:45:40.698Z,2.41
2023-01-30T04:46:40.711Z,2.37
2023-01-30T04:47:40.829Z,2.39
2023-01-30T04:48:40.723Z,2.43
2023-01-30T04:49:40.731Z,2.43
2023-01-30T04:50:40.739Z,2.39
2023-01-30T04:51:40.755Z,2.40
2023-01-30T04:52:40.760Z,2.58
2023-01-30T04:53:40.764Z,2.46
2023-01-30T04:54:40.774Z,2.46
2023-01-30T04:55:40.779Z,2.57
2023-01-30T04:56:40.809Z,2.52
2023-01-30T04:57:40.796Z,2.43
2023-01-30T04:58:40.814Z,2.50
2023-01-30T04:59:40.829Z,2.52
2023-01-30T05:00:40.856Z,2.55
2023-01-30T05:01:40.843Z,2.52
2023-01-30T05:02:40.844Z,2.52
2023-01-30T05:03:40.840Z,2.55
2023-01-30T05:04:40.855Z,2.52
2023-01-30T05:05:40.863Z,2.47
2023-01-30T05:06:40.870Z,2.46
2023-01-30T05:07:40.883Z,2.51
2023-01-30T05:08:40.893Z,2.37
2023-01-30T05:09:40.888Z,2.34
2023-01-30T05:10:40.895Z,2.40
2023-01-30T05:11:40.952Z,2.43
2023-01-30T05:12:40.912Z,2.41
2023-01-30T05:13:40.914Z,2.37
2023-01-30T05:14:40.925Z,2.34
2023-01-30T05:15:40.932Z,2.33
2023-01-30T05:16:40.958Z,2.32
2023-01-30T05:17:43.048Z,2.37
2023-01-30T05:18:40.956Z,2.37
2023-01-30T05:19:40.967Z,2.32
2023-01-30T05:20:40.971Z,2.25
2023-01-30T05:21:40.997Z,2.32
2023-01-30T05:22:40.987Z,2.23
2023-01-30T05:23:41.000Z,2.25
2023-01-30T05:24:41.001Z,2.23
2023-01-30T05:25:41.008Z,2.19
2023-01-30T05:26:41.039Z,2.25
2023-01-30T05:27:41.024Z,2.16
2023-01-30T05:28:41.033Z,2.15
2023-01-30T05:29:41.051Z,2.21
2023-01-30T05:30:41.088Z,2.15
2023-01-30T05:31:41.073Z,2.07
2023-01-30T05:32:41.099Z,2.12
2023-01-30T05:33:41.072Z,2.18
2023-01-30T05:34:41.093Z,2.08
2023-01-30T05:35:41.089Z,2.18
2023-01-30T05:36:41.091Z,2.15
2023-01-30T05:37:41.103Z,2.10
2023-01-30T05:38:41.108Z,2.08
2023-01-30T05:39:41.116Z,2.05
2023-01-30T05:40:41.123Z,2.10
2023-01-30T05:41:41.131Z,2.10
2023-01-30T05:42:41.139Z,2.08
2023-01-30T05:43:41.147Z,2.10
2023-01-30T05:44:41.160Z,2.18
2023-01-30T05:45:41.161Z,2.05
2023-01-30T05:46:41.209Z,2.07
2023-01-30T05:47:41.176Z,2.04
2023-01-30T05:48:41.185Z,2.12
2023-01-30T05:49:41.194Z,2.08
2023-01-30T05:50:41.208Z,2.01
2023-01-30T05:51:41.205Z,2.04
2023-01-30T05:52:41.213Z,2.12
2023-01-30T05:53:41.220Z,2.08
2023-01-30T05:54:41.227Z,2.16
2023-01-30T05:55:41.238Z,2.05
2023-01-30T05:56:41.241Z,2.08
2023-01-30T05:57:41.248Z,2.07
2023-01-30T05:58:41.256Z,2.16
2023-01-30T05:59:41.272Z,2.08
2023-01-30T06:00:41.273Z,2.08
2023-01-30T06:01:41.280Z,2.12
2023-01-30T06:02:41.305Z,2.12
2023-01-30T06:03:41.361Z,2.12
2023-01-30T06:04:41.303Z,2.08
2023-01-30T06:05:41.309Z,2.08
2023-01-30T06:06:41.316Z,2.18
2023-01-30T06:07:41.325Z,2.12
2023-01-30T06:08:41.336Z,2.15
2023-01-30T06:09:41.344Z,2.08
2023-01-30T06:10:41.349Z,2.07
2023-01-30T06:11:41.355Z,2.15
2023-01-30T06:12:41.364Z,2.10
2023-01-30T06:13:41.369Z,2.05
2023-01-30T06:14:41.378Z,2.05
2023-01-30T06:15:41.428Z,2.12
2023-01-30T06:16:41.433Z,2.10
2023-01-30T06:17:41.417Z,2.10
2023-01-30T06:18:41.407Z,2.14
2023-01-30T06:19:41.419Z,2.12
2023-01-30T06:20:41.427Z,2.12
2023-01-30T06:21:41.431Z,2.15
2023-01-30T06:22:41.440Z,2.14
2023-01-30T06:23:41.448Z,2.25
2023-01-30T06:24:41.456Z,2.25
2023-01-30T06:25:41.474Z,2.22
2023-01-30T06:26:41.541Z,2.23
2023-01-30T06:27:41.476Z,2.22
2023-01-30T06:28:41.483Z,2.26
2023-01-30T06:29:41.493Z,2.22
2023-01-30T06:30:41.499Z,2.30
2023-01-30T06:31:41.532Z,2.28
2023-01-30T06:32:41.532Z,2.26
2023-01-30T06:33:41.528Z,2.40
2023-01-30T06:34:41.529Z,2.36
2023-01-30T06:35:41.540Z,2.39
2023-01-30T06:36:41.544Z,2.37
2023-01-30T06:37:41.554Z,2.33
2023-01-30T06:38:41.558Z,2.37
2023-01-30T06:39:41.580Z,2.41
2023-01-30T06:40:41.581Z,2.41
2023-01-30T06:41:41.582Z,2.37
2023-01-30T06:42:41.602Z,2.37
2023-01-30T06:43:41.627Z,2.37
2023-01-30T06:44:41.624Z,2.43
2023-01-30T06:45:41.614Z,2.41
2023-01-30T06:46:41.628Z,2.51
2023-01-30T06:47:41.629Z,2.47
2023-01-30T06:48:41.651Z,2.44
2023-01-30T06:49:41.645Z,2.47
2023-01-30T06:50:41.658Z,2.54
2023-01-30T06:51:41.677Z,2.55
2023-01-30T06:52:41.671Z,2.58
2023-01-30T06:53:41.678Z,2.50
2023-01-30T06:54:41.690Z,2.54
2023-01-30T06:55:41.694Z,2.65
2023-01-30T06:56:41.700Z,2.59
2023-01-30T06:57:41.713Z,2.68
2023-01-30T06:58:41.721Z,2.69
2023-01-30T06:59:41.726Z,2.64
2023-01-30T07:00:41.738Z,2.72
2023-01-30T07:01:41.770Z,2.70
2023-01-30T07:02:41.754Z,2.76
2023-01-30T07:03:41.765Z,2.73
2023-01-30T07:04:41.773Z,2.75
2023-01-30T07:05:41.773Z,2.73
2023-01-30T07:06:41.782Z,2.82
2023-01-30T07:07:41.790Z,2.80
2023-01-30T07:08:41.798Z,2.87
2023-01-30T07:09:41.807Z,2.83
2023-01-30T07:10:41.819Z,2.82
2023-01-30T07:11:41.826Z,2.91
2023-01-30T07:12:41.833Z,2.98
2023-01-30T07:13:41.841Z,2.91
2023-01-30T07:14:41.845Z,2.94
2023-01-30T07:15:41.854Z,2.91
2023-01-30T07:16:41.906Z,2.93
2023-01-30T07:17:41.878Z,3.03
2023-01-30T07:18:41.878Z,2.97
2023-01-30T07:19:41.889Z,2.98
2023-01-30T07:20:41.894Z,2.91
2023-01-30T07:21:41.918Z,2.94
2023-01-30T07:22:41.911Z,3.05
2023-01-30T07:23:41.920Z,2.95
2023-01-30T07:24:41.928Z,3.11
2023-01-30T07:25:41.937Z,3.05
2023-01-30T07:26:41.958Z,3.08
2023-01-30T07:27:41.953Z,3.09
2023-01-30T07:28:41.960Z,3.06
2023-01-30T07:29:41.968Z,3.03
2023-01-30T07:30:42.032Z,3.16
2023-01-30T07:31:42.024Z,3.09
2023-01-30T07:32:41.994Z,3.15
2023-01-30T07:33:42.003Z,3.26
2023-01-30T07:34:42.011Z,3.24
2023-01-30T07:35:42.059Z,3.21
2023-01-30T07:36:42.027Z,3.18
2023-01-30T07:37:42.034Z,3.36
2023-01-30T07:38:42.043Z,3.24
2023-01-30T07:39:42.063Z,3.27
2023-01-30T07:40:42.068Z,3.27
2023-01-30T07:41:42.069Z,3.36
2023-01-30T07:42:42.077Z,3.36
2023-01-30T07:43:42.104Z,3.30
2023-01-30T07:44:42.093Z,3.41
2023-01-30T07:45:42.102Z,3.46
2023-01-30T07:46:42.170Z,3.49
2023-01-30T07:47:42.120Z,3.55
2023-01-30T07:48:42.129Z,3.46
2023-01-30T07:49:42.221Z,3.66
2023-01-30T07:50:42.173Z,3.61
2023-01-30T07:51:42.153Z,3.66
2023-01-30T07:52:42.162Z,3.67
2023-01-30T07:53:42.178Z,3.61
2023-01-30T07:54:42.184Z,3.66
2023-01-30T07:55:42.190Z,3.76
2023-01-30T07:56:42.208Z,3.74
2023-01-30T07:57:42.216Z,3.82
2023-01-30T07:58:42.215Z,3.82
2023-01-30T07:59:42.228Z,3.82
2023-01-30T08:00:42.235Z,3.84
2023-01-30T08:01:42.243Z,3.81
2023-01-30T08:02:42.255Z,3.89
2023-01-30T08:03:42.261Z,3.89
2023-01-30T08:04:42.319Z,3.89
2023-01-30T08:05:42.274Z,3.86
2023-01-30T08:06:42.280Z,3.95
2023-01-30T08:07:42.290Z,3.92
2023-01-30T08:08:42.298Z,4.02
2023-01-30T08:09:42.354Z,4.03
2023-01-30T08:10:42.319Z,4.03
2023-01-30T08:11:42.328Z,4.03
2023-01-30T08:12:42.337Z,4.10
2023-01-30T08:13:42.341Z,4.10
2023-01-30T08:14:42.352Z,4.10
2023-01-30T08:15:42.362Z,4.03
2023-01-30T08:16:42.410Z,4.09
2023-01-30T08:17:42.396Z,4.04
2023-01-30T08:18:42.397Z,4.00
2023-01-30T08:19:42.409Z,4.04
2023-01-30T08:20:42.402Z,4.07
2023-01-30T08:21:42.415Z,4.12
2023-01-30T08:22:42.421Z,4.16
2023-01-30T08:23:42.433Z,4.18
2023-01-30T08:24:42.439Z,4.22
2023-01-30T08:25:42.447Z,4.13
2023-01-30T08:26:42.471Z,4.16
2023-01-30T08:27:42.464Z,4.24
2023-01-30T08:28:42.477Z,4.27
2023-01-30T08:29:42.486Z,4.24
2023-01-30T08:30:42.556Z,4.25
2023-01-30T08:31:42.539Z,4.31
2023-01-30T08:32:42.515Z,4.21
2023-01-30T08:33:42.524Z,4.31
2023-01-30T08:34:42.527Z,4.24
2023-01-30T08:35:42.537Z,4.28
2023-01-30T08:36:42.549Z,4.25
2023-01-30T08:37:42.551Z,4.28
2023-01-30T08:38:42.563Z,4.20
2023-01-30T08:39:42.574Z,4.36
2023-01-30T08:40:42.582Z,4.38
2023-01-30T08:41:42.603Z,4.31
2023-01-30T08:42:42.602Z,4.30
2023-01-30T08:43:42.626Z,4.32
2023-01-30T08:44:42.623Z,4.28
2023-01-30T08:45:42.625Z,4.31
2023-01-30T08:46:42.709Z,4.27
2023-01-30T08:47:42.665Z,4.38
2023-01-30T08:48:49.599Z,4.34
2023-01-30T08:49:42.680Z,4.31
2023-01-30T08:50:42.675Z,4.32
2023-01-30T08:51:42.683Z,4.39
2023-01-30T08:52:42.693Z,4.28
2023-01-30T08:53:42.708Z,4.34
2023-01-30T08:54:42.718Z,4.30
2023-01-30T08:55:42.729Z,4.38
2023-01-30T08:56:42.732Z,4.38
2023-01-30T08:57:42.740Z,4.36
2023-01-30T08:58:42.749Z,4.39
2023-01-30T08:59:42.758Z,4.39
2023-01-30T09:00:42.764Z,4.43
2023-01-30T09:01:42.775Z,4.39
2023-01-30T09:02:42.783Z,4.45
2023-01-30T09:03:42.796Z,4.46
2023-01-30T09:04:42.802Z,4.43
2023-01-30T09:05:42.811Z,4.52
2023-01-30T09:06:42.823Z,4.50
2023-01-30T09:07:42.831Z,4.57
2023-01-30T09:08:42.861Z,4.53
2023-01-30T09:09:42.852Z,4.52
2023-01-30T09:10:42.860Z,4.49
2023-01-30T09:11:42.870Z,4.57
2023-01-30T09:12:42.885Z,4.53
2023-01-30T09:13:42.889Z,4.57
2023-01-30T09:14:42.906Z,4.63
2023-01-30T09:15:42.909Z,4.61
2023-01-30T09:16:42.965Z,4.66
2023-01-30T09:17:42.928Z,4.68
2023-01-30T09:18:42.939Z,4.58
2023-01-30T09:19:42.947Z,4.63
2023-01-30T09:20:42.959Z,4.67
2023-01-30T09:21:42.969Z,4.74
2023-01-30T09:22:42.975Z,4.75
2023-01-30T09:23:42.987Z,4.67
2023-01-30T09:24:43.006Z,4.86
2023-01-30T09:25:43.009Z,4.89
2023-01-30T09:26:43.072Z,4.89
2023-01-30T09:27:43.026Z,4.94
2023-01-30T09:28:43.051Z,4.95
2023-01-30T09:29:44.415Z,4.97
2023-01-30T09:30:43.146Z,5.00
2023-01-30T09:31:43.110Z,5.02
2023-01-30T09:32:43.079Z,5.02
2023-01-30T09:33:43.087Z,5.05
2023-01-30T09:34:43.097Z,5.08
2023-01-30T09:35:43.113Z,5.00
2023-01-30T09:36:43.121Z,5.04
2023-01-30T09:37:43.129Z,5.12
2023-01-30T09:38:43.146Z,5.16
2023-01-30T09:39:43.151Z,5.05
2023-01-30T09:40:43.159Z,5.05
2023-01-30T09:41:43.169Z,5.08
2023-01-30T09:42:43.183Z,5.08
2023-01-30T09:43:43.198Z,5.13
2023-01-30T09:44:43.204Z,5.12
2023-01-30T09:45:43.215Z,5.19
2023-01-30T09:46:43.225Z,5.20
2023-01-30T09:47:43.239Z,5.26
2023-01-30T09:48:43.243Z,5.26
2023-01-30T09:49:43.253Z,5.26
2023-01-30T09:50:43.269Z,5.34
2023-01-30T09:51:43.276Z,5.33
2023-01-30T09:52:43.287Z,5.36
2023-01-30T09:53:43.298Z,5.40
2023-01-30T09:54:43.316Z,5.46
2023-01-30T09:55:43.326Z,5.47
2023-01-30T09:56:43.328Z,5.46
2023-01-30T09:57:43.342Z,5.44
2023-01-30T09:58:43.355Z,5.55
2023-01-30T09:59:43.360Z,5.59
2023-01-30T10:00:43.380Z,5.61
2023-01-30T10:01:43.382Z,5.62
2023-01-30T10:02:43.396Z,5.61
2023-01-30T10:03:43.452Z,5.58
2023-01-30T10:04:59.010Z,5.56
2023-01-30T10:05:43.427Z,5.55
2023-01-30T10:06:43.441Z,5.43
2023-01-30T10:07:43.491Z,5.43
2023-01-30T10:08:43.467Z,5.52
2023-01-30T10:09:43.479Z,5.49
2023-01-30T10:10:43.482Z,5.43
2023-01-30T10:11:43.496Z,5.41
2023-01-30T10:12:43.579Z,5.37
2023-01-30T10:13:43.515Z,5.36
2023-01-30T10:14:43.522Z,5.31
2023-01-30T10:15:43.605Z,5.36
2023-01-30T10:16:43.544Z,5.31
2023-01-30T10:17:43.558Z,5.33
2023-01-30T10:18:43.604Z,5.37
2023-01-30T10:19:43.579Z,5.38
2023-01-30T10:20:43.648Z,5.47
2023-01-30T10:21:43.606Z,5.47
2023-01-30T10:22:43.695Z,5.49
2023-01-30T10:23:43.664Z,5.44
2023-01-30T10:24:43.633Z,5.52
2023-01-30T10:25:43.650Z,5.51
2023-01-30T10:26:43.676Z,5.46
2023-01-30T10:27:43.664Z,5.34
2023-01-30T10:28:47.644Z,5.36
2023-01-30T10:29:43.688Z,5.36
2023-01-30T10:30:43.732Z,5.36
2023-01-30T10:31:43.765Z,5.29
2023-01-30T10:32:43.757Z,5.33
2023-01-30T10:33:43.728Z,5.29
2023-01-30T10:34:43.748Z,5.33
2023-01-30T10:35:43.755Z,5.38
2023-01-30T10:36:43.776Z,5.36
2023-01-30T10:37:43.772Z,5.40
2023-01-30T10:38:43.785Z,5.52
2023-01-30T10:39:54.561Z,5.52
2023-01-30T10:40:43.805Z,5.56
2023-01-30T10:41:43.818Z,5.56
2023-01-30T10:42:43.943Z,5.61
2023-01-30T10:43:43.839Z,5.51
2023-01-30T10:44:43.862Z,5.54
2023-01-30T10:45:43.859Z,5.55
2023-01-30T10:46:43.905Z,5.58
2023-01-30T10:47:47.261Z,5.49
2023-01-30T10:48:46.001Z,5.56
2023-01-30T10:49:43.904Z,5.54
2023-01-30T10:50:43.918Z,5.58
2023-01-30T10:51:43.938Z,5.67
2023-01-30T10:52:43.937Z,5.64
2023-01-30T10:53:43.947Z,5.67
2023-01-30T10:54:43.975Z,5.61
2023-01-30T10:55:43.974Z,5.62
2023-01-30T10:56:43.981Z,5.62
2023-01-30T10:57:43.995Z,5.58
2023-01-30T10:58:44.005Z,5.69
2023-01-30T10:59:44.021Z,5.67
2023-01-30T11:00:44.025Z,5.56
2023-01-30T11:01:44.129Z,5.64
2023-01-30T11:02:44.077Z,5.70
2023-01-30T11:03:44.060Z,5.73
2023-01-30T11:04:44.077Z,5.67
2023-01-30T11:05:44.096Z,5.70
2023-01-30T11:06:44.097Z,5.74
2023-01-30T11:07:44.110Z,5.77
2023-01-30T11:08:44.116Z,5.73
2023-01-30T11:09:44.123Z,5.69
2023-01-30T11:10:44.142Z,5.72
2023-01-30T11:11:44.149Z,5.79
2023-01-30T11:12:44.164Z,5.73
2023-01-30T11:13:44.181Z,5.81
2023-01-30T11:14:44.187Z,5.74
2023-01-30T11:15:44.316Z,5.81
2023-01-30T11:16:44.217Z,5.83
2023-01-30T11:17:44.218Z,5.76
2023-01-30T11:19:18.658Z,5.83
2023-01-30T11:19:44.238Z,5.90
2023-01-30T11:20:44.253Z,5.72
2023-01-30T11:21:44.921Z,5.81
2023-01-30T11:22:44.276Z,5.94
2023-01-30T11:23:44.285Z,5.90
2023-01-30T11:24:44.299Z,5.87
2023-01-30T11:25:44.306Z,6.06
2023-01-30T11:26:47.709Z,5.90
2023-01-30T11:27:44.328Z,6.02
2023-01-30T11:28:45.169Z,5.99
2023-01-30T11:29:44.354Z,5.94
2023-01-30T11:30:44.360Z,6.01
2023-01-30T11:31:44.472Z,6.02
2023-01-30T11:32:44.388Z,6.02
2023-01-30T11:33:44.398Z,6.02
2023-01-30T11:34:44.435Z,6.09
2023-01-30T11:35:44.417Z,6.05
2023-01-30T11:36:44.430Z,6.13
2023-01-30T11:37:44.456Z,5.99
2023-01-30T11:38:44.457Z,6.13
2023-01-30T11:39:44.465Z,6.12
2023-01-30T11:40:44.477Z,6.20
2023-01-30T11:41:44.487Z,6.15
2023-01-30T11:42:44.501Z,6.13
2023-01-30T11:43:44.511Z,6.19
2023-01-30T11:44:44.524Z,6.12
2023-01-30T11:45:44.595Z,6.17
2023-01-30T11:46:44.550Z,6.15
2023-01-30T11:47:54.130Z,6.20
2023-01-30T11:49:03.340Z,6.28
2023-01-30T11:49:51.563Z,6.22
2023-01-30T11:50:47.251Z,6.34
2023-01-30T11:51:44.616Z,6.28
2023-01-30T11:52:44.622Z,6.28
2023-01-30T11:53:44.635Z,6.25
2023-01-30T11:54:44.653Z,6.35
2023-01-30T11:56:00.293Z,6.39
2023-01-30T11:56:44.662Z,6.39
2023-01-30T11:57:44.700Z,6.44
2023-01-30T11:58:44.688Z,6.46
2023-01-30T11:59:44.698Z,6.41
2023-01-30T12:00:44.710Z,6.47
2023-01-30T12:01:44.757Z,6.50
2023-01-30T12:02:44.755Z,6.47
2023-01-30T12:03:44.751Z,6.47
2023-01-30T12:04:44.759Z,6.52
2023-01-30T12:05:44.772Z,6.54
2023-01-30T12:06:44.781Z,6.60
2023-01-30T12:07:44.796Z,6.77
2023-01-30T12:08:44.805Z,6.74
2023-01-30T12:09:44.834Z,6.89
2023-01-30T12:10:44.831Z,6.97
2023-01-30T12:11:44.839Z,7.01
2023-01-30T12:12:44.858Z,7.08
2023-01-30T12:13:44.868Z,7.22
2023-01-30T12:14:45.938Z,7.21
2023-01-30T12:15:44.893Z,7.21
2023-01-30T12:16:44.937Z,7.19
2023-01-30T12:17:44.917Z,7.26
2023-01-30T12:18:44.931Z,7.14
2023-01-30T12:19:44.943Z,7.18
2023-01-30T12:20:44.963Z,7.10
2023-01-30T12:21:44.975Z,7.08
2023-01-30T12:22:44.984Z,7.01
2023-01-30T12:23:45.005Z,6.96
2023-01-30T12:24:45.015Z,6.96
2023-01-30T12:25:45.024Z,6.85
2023-01-30T12:26:45.095Z,6.90
2023-01-30T12:27:45.051Z,6.92
2023-01-30T12:28:45.063Z,6.75
2023-01-30T12:29:45.070Z,6.82
2023-01-30T12:30:45.085Z,6.75
2023-01-30T12:31:45.120Z,6.77
2023-01-30T12:32:45.107Z,6.82
2023-01-30T12:33:45.125Z,6.75
2023-01-30T12:34:45.131Z,6.80
2023-01-30T12:35:45.145Z,6.75
2023-01-30T12:36:45.156Z,6.78
2023-01-30T12:37:45.172Z,6.74
2023-01-30T12:38:45.190Z,6.64
2023-01-30T12:40:47.066Z,6.54
2023-01-30T12:41:45.218Z,6.60
2023-01-30T12:42:45.228Z,6.47
2023-01-30T12:43:45.245Z,6.46
2023-01-30T12:44:45.253Z,6.41
2023-01-30T12:45:45.263Z,6.35
2023-01-30T12:46:45.273Z,6.29
2023-01-30T12:47:45.286Z,6.28
2023-01-30T12:48:48.605Z,6.17
2023-01-30T12:49:45.310Z,6.17
2023-01-30T12:50:45.333Z,6.20
2023-01-30T12:51:45.340Z,6.22
2023-01-30T12:52:45.342Z,6.19
2023-01-30T12:53:45.357Z,6.19
2023-01-30T12:54:45.367Z,6.17
2023-01-30T12:55:45.379Z,6.20
2023-01-30T12:56:46.373Z,6.16
2023-01-30T12:57:45.400Z,6.12
2023-01-30T12:58:45.415Z,6.15
2023-01-30T12:59:45.429Z,6.15
2023-01-30T13:00:45.439Z,6.20
2023-01-30T13:01:45.500Z,6.10
2023-01-30T13:02:45.488Z,6.17
2023-01-30T13:03:45.471Z,6.15
2023-01-30T13:04:56.521Z,6.19
2023-01-30T13:05:45.491Z,6.16
2023-01-30T13:06:45.503Z,6.17
2023-01-30T13:07:45.510Z,6.15
2023-01-30T13:08:45.527Z,6.17
2023-01-30T13:09:45.536Z,6.19
2023-01-30T13:10:45.547Z,6.13
2023-01-30T13:11:45.555Z,6.19
2023-01-30T13:12:45.571Z,6.25
2023-01-30T13:13:45.581Z,6.16
2023-01-30T13:14:45.591Z,6.28
2023-01-30T13:15:45.604Z,6.20
2023-01-30T13:16:45.616Z,6.19
2023-01-30T13:17:45.631Z,6.25
2023-01-30T13:18:45.641Z,6.31
2023-01-30T13:19:45.646Z,6.16